Time;durP1;ratioP1;P1;durP2;ratioP2;P2;SDS_P1;SDS_P2;PMS_P1;PMS_P2;Temp;Humidity;BMP_temperature;BMP_pressure;BME280_temperature;BME280_humidity;BME280_pressure;Samples;Min_cycle;Max_cycle;Signal;HPM_P1;HPM_P2
2023/07/05 07:23:14;;;;;;;6.75;3.03;;;;;;;-145.79;66.43;76764.75;5300705;27;20749;-73
2023/07/05 07:25:45;;;;;;;6.03;2.28;;;;;;;-145.79;67.68;76764.75;5301008;28;20040;-73
2023/07/05 07:28:16;;;;;;;3.42;2.30;;;;;;;-145.79;68.40;76771.09;5300803;28;20024;-72
2023/07/05 07:30:47;;;;;;;4.05;2.15;;;;;;;-145.79;69.85;76798.66;5290201;28;20439;-71
2023/07/05 07:33:19;;;;;;;4.63;2.92;;;;;;;-145.79;70.97;76800.78;5292697;28;20044;-72
2023/07/05 07:35:50;;;;;;;4.88;2.65;;;;;;;-145.79;72.67;76805.00;5289464;28;20444;-70
2023/07/05 07:38:21;;;;;;;2.90;2.15;;;;;;;-145.79;72.30;76838.94;5297035;28;20482;-71
2023/07/05 07:40:53;;;;;;;4.32;2.47;;;;;;;-145.79;73.32;76838.94;5295659;28;20025;-70
2023/07/05 07:43:24;;;;;;;7.55;2.72;;;;;;;-145.79;74.12;76843.16;5279023;28;20086;-73
2023/07/05 07:45:55;;;;;;;3.92;2.67;;;;;;;-145.79;73.91;76853.75;5279082;28;20029;-72
2023/07/05 07:48:27;;;;;;;4.57;2.80;;;;;;;-145.79;74.17;76887.66;5294666;28;20077;-72
2023/07/05 07:51:01;;;;;;;4.97;2.63;;;;;;;-145.79;75.30;76889.78;5295128;28;20051;-73
2023/07/05 07:53:32;;;;;;;4.95;2.72;;;;;;;-145.79;75.30;76889.78;5282011;28;20033;-72
2023/07/05 07:56:15;;;;;;;3.50;2.55;;;;;;;-145.79;76.89;76883.44;5292121;28;20468;-72
2023/07/05 07:58:49;;;;;;;3.50;2.40;;;;;;;-145.79;77.04;76896.16;5299615;28;20033;-71
2023/07/05 08:01:27;;;;;;;6.32;2.50;;;;;;;-145.79;76.72;76885.56;5288296;28;20051;-72
2023/07/05 08:04:02;;;;;;;3.53;2.55;;;;;;;-145.79;76.40;76889.78;5296867;28;20051;-72
2023/07/05 08:06:48;;;;;;;4.37;2.10;;;;;;;-145.79;76.39;76879.19;5284569;28;20074;-70
2023/07/05 08:09:28;;;;;;;4.00;2.40;;;;;;;-145.79;76.72;76887.66;5300360;28;20096;-70
2023/07/05 08:11:59;;;;;;;2.80;2.20;;;;;;;-145.79;75.55;76877.06;5294407;28;20094;-70
2023/07/05 08:14:34;;;;;;;3.75;2.53;;;;;;;-145.79;75.39;76879.19;5299453;28;20032;-71
2023/07/05 08:17:05;;;;;;;3.80;2.75;;;;;;;-145.79;74.58;76868.59;5299078;28;20099;-72
2023/07/05 08:19:37;;;;;;;5.93;3.17;;;;;;;-145.79;73.33;76847.41;5299356;28;20108;-74
2023/07/05 08:22:08;;;;;;;3.75;2.55;;;;;;;-145.79;72.10;76821.97;5286939;28;20049;-73
2023/07/05 08:24:40;;;;;;;4.00;2.88;;;;;;;-145.79;69.93;76805.00;5278818;28;20498;-74
2023/07/05 08:27:20;;;;;;;5.00;2.60;;;;;;;-145.79;71.02;76775.34;5277821;28;20025;-75
2023/07/05 08:29:52;;;;;;;6.95;3.15;;;;;;;-145.79;70.09;76775.34;5278400;28;20025;-75
2023/07/05 08:32:23;;;;;;;9.52;3.90;;;;;;;-145.79;68.22;76769.00;5275879;28;20032;-75
2023/07/05 08:34:54;;;;;;;5.05;2.90;;;;;;;-145.79;67.98;76732.97;5263852;28;20020;-73
2023/07/05 08:37:26;;;;;;;5.90;2.85;;;;;;;-145.79;67.81;76741.44;5272502;28;20092;-73
2023/07/05 08:40:05;;;;;;;4.47;3.22;;;;;;;-145.79;67.84;76743.56;5284160;28;20048;-83
2023/07/05 08:42:47;;;;;;;6.32;2.67;;;;;;;-145.79;68.23;76754.16;5285949;28;20025;-86
2023/07/05 08:45:28;;;;;;;6.57;2.92;;;;;;;-145.79;67.34;76724.47;5287587;28;20025;-83
2023/07/05 08:48:03;;;;;;;5.47;2.90;;;;;;;-145.79;66.02;76701.16;5285917;28;20029;-86
2023/07/05 08:50:40;;;;;;;6.22;3.40;;;;;;;-145.79;65.98;76709.66;5286182;28;20033;-81
2023/07/05 08:53:20;;;;;;;5.15;3.35;;;;;;;-145.79;65.63;76699.06;5284652;28;20043;-84
2023/07/05 08:56:02;;;;;;;4.70;3.28;;;;;;;-145.79;64.57;76684.22;5278061;28;20054;-81
2023/07/05 08:58:48;;;;;;;6.80;2.63;;;;;;;-145.79;64.38;76658.78;5285264;28;20499;-77
2023/07/05 09:01:27;;;;;;;7.50;3.45;;;;;;;-145.79;63.59;76631.22;5284664;28;20471;-80
2023/07/05 09:03:59;;;;;;;5.18;3.13;;;;;;;-145.79;63.05;76648.19;5285165;28;20016;-77
2023/07/05 09:06:38;;;;;;;7.70;3.17;;;;;;;-145.79;63.23;76650.31;5271853;28;20052;-77
2023/07/05 09:09:46;;;;;;;4.90;3.08;;;;;;;-145.79;62.65;76605.81;5273035;28;20032;-77
2023/07/05 09:12:27;;;;;;;4.20;2.45;;;;;;;-145.79;61.68;76601.56;5278898;28;20112;-76
2023/07/05 09:15:38;;;;;;;5.80;3.15;;;;;;;-145.79;60.52;76629.13;5277058;28;20464;-76
2023/07/05 09:18:23;;;;;;;4.78;2.90;;;;;;;-145.79;60.99;76648.19;5273729;28;20173;-76
2023/07/05 09:21:09;;;;;;;10.30;6.88;;;;;;;-145.79;60.58;76639.72;5284744;28;20021;-76
2023/07/05 09:23:50;;;;;;;;;;;;;;;-145.79;59.63;76618.53;5284230;28;20056;-76
2023/07/05 09:26:33;;;;;;;7.88;2.78;;;;;;;-145.79;58.42;76635.47;5284850;28;20276;-77
2023/07/05 09:29:13;;;;;;;3.88;2.70;;;;;;;-145.79;58.14;76616.41;5282438;28;20085;-76
2023/07/05 09:31:48;;;;;;;7.30;3.28;;;;;;;-145.79;58.02;76599.44;5284946;28;20422;-77
2023/07/05 09:34:38;;;;;;;4.25;2.40;;;;;;;-145.79;57.15;76574.00;5285301;28;20085;-80
2023/07/05 09:37:19;;;;;;;4.72;2.55;;;;;;;-145.79;55.76;76607.91;5276695;28;20039;-80
2023/07/05 09:40:15;;;;;;;5.35;2.28;;;;;;;-145.79;55.71;76569.78;5286330;28;20025;-80
2023/07/05 09:43:20;;;;;;;5.70;2.20;;;;;;;-145.79;55.70;76588.84;5283409;28;20036;-79
2023/07/05 09:45:52;;;;;;;3.55;1.98;;;;;;;-145.79;54.21;76582.50;5281903;28;20033;-78
2023/07/05 09:48:23;;;;;;;4.80;1.95;;;;;;;-145.79;53.94;76578.25;5282647;28;20024;-80
2023/07/05 09:50:54;;;;;;;4.97;2.10;;;;;;;-145.79;53.26;76554.94;5283205;28;20043;-78
2023/07/05 09:53:38;;;;;;;5.00;2.03;;;;;;;-145.79;52.49;76580.38;5284250;28;20024;-78
2023/07/05 09:56:14;;;;;;;3.45;1.90;;;;;;;-145.79;53.32;76567.66;5284157;28;20032;-78
2023/07/05 09:58:48;;;;;;;8.73;2.65;;;;;;;-145.79;52.87;76576.13;5283322;28;20551;-75
2023/07/05 10:01:23;;;;;;;9.52;2.92;;;;;;;-145.79;52.17;76548.59;5283974;28;20056;-77
2023/07/05 10:03:57;;;;;;;3.42;1.80;;;;;;;-145.79;52.09;76538.00;5282174;28;20044;-74
2023/07/05 10:06:29;;;;;;;3.38;2.28;;;;;;;-145.79;50.92;76540.09;5283634;28;20162;-75
2023/07/05 10:09:07;;;;;;;6.03;2.28;;;;;;;-145.79;50.33;76533.75;5283561;28;20021;-74
2023/07/05 10:11:44;;;;;;;3.15;2.08;;;;;;;-145.79;49.98;76533.75;5283041;28;20024;-76
2023/07/05 10:14:19;;;;;;;3.88;1.90;;;;;;;-145.79;49.81;76525.28;5283631;28;20016;-78
2023/07/05 10:17:04;;;;;;;6.05;1.80;;;;;;;-145.79;49.70;76546.47;5283502;28;20027;-77
2023/07/05 10:19:53;;;;;;;6.68;2.42;;;;;;;-145.79;48.76;76580.38;5282652;28;20017;-78
2023/07/05 10:22:31;;;;;;;4.03;1.55;;;;;;;-145.79;49.83;76571.91;5262670;28;20449;-76
2023/07/05 10:25:17;;;;;;;4.03;2.10;;;;;;;-145.79;49.04;76584.59;5262227;28;20111;-76
2023/07/05 10:27:50;;;;;;;4.18;1.85;;;;;;;-145.79;49.48;76584.59;5277569;28;20062;-79
2023/07/05 10:30:21;;;;;;;4.18;2.08;;;;;;;-145.79;49.21;76563.41;5283414;28;20021;-76
2023/07/05 10:33:17;;;;;;;6.20;2.10;;;;;;;-145.79;48.00;76571.91;5281612;28;20021;-76
2023/07/05 10:36:14;;;;;;;3.60;1.50;;;;;;;-145.79;47.88;76554.94;5282582;28;20024;-76
2023/07/05 10:38:48;;;;;;;4.00;1.67;;;;;;;-145.79;47.38;76546.47;5263144;28;20061;-76
2023/07/05 10:41:19;;;;;;;3.80;1.58;;;;;;;-145.79;46.86;76576.13;5258957;28;20037;-76
2023/07/05 10:44:16;;;;;;;7.07;1.73;;;;;;;-145.79;47.44;76574.00;5278095;28;20020;-73
2023/07/05 10:46:48;;;;;;;19.05;17.15;;;;;;;-145.79;46.37;76550.69;5274058;28;20376;-74
2023/07/05 10:49:20;;;;;;;3.92;1.90;;;;;;;-145.79;46.42;76535.88;5275381;28;20059;-77
2023/07/05 10:52:05;;;;;;;11.68;9.77;;;;;;;-145.79;46.67;76521.03;5262153;28;20083;-78
2023/07/05 10:54:44;;;;;;;3.05;1.40;;;;;;;-145.79;45.40;76504.09;5269858;28;20021;-79
2023/07/05 10:57:32;;;;;;;5.25;1.70;;;;;;;-145.79;45.53;76510.44;5282154;28;20063;-77
2023/07/05 11:00:21;;;;;;;6.57;1.60;;;;;;;-145.79;45.98;76495.59;5281955;28;20114;-76
2023/07/05 11:02:56;;;;;;;5.60;1.50;;;;;;;-145.79;45.57;76521.03;5282238;28;20024;-78
2023/07/05 11:05:56;;;;;;;2.78;1.83;;;;;;;-145.79;45.26;76495.59;5283095;28;20415;-76
2023/07/05 11:08:31;;;;;;;5.90;2.40;;;;;;;-145.79;45.37;76518.91;5281246;28;20116;-76
2023/07/05 11:11:15;;;;;;;8.98;2.47;;;;;;;-145.79;45.82;76567.66;5279180;28;20035;-76
2023/07/05 11:13:48;;;;;;;4.05;1.40;;;;;;;-145.79;46.34;76557.06;5273756;28;20032;-76
2023/07/05 11:16:31;;;;;;;5.30;1.75;;;;;;;-145.79;46.12;76552.81;5282856;28;20021;-75
2023/07/05 11:19:05;;;;;;;5.57;1.80;;;;;;;-145.79;46.22;76563.41;5282709;28;20027;-75
2023/07/05 11:21:44;;;;;;;4.40;1.88;;;;;;;-145.79;45.32;76550.69;5281480;28;20086;-77
2023/07/05 11:24:24;;;;;;;6.18;5.43;;;;;;;-145.79;45.06;76525.28;5282473;28;20468;-77
2023/07/05 11:26:57;;;;;;;4.82;1.67;;;;;;;-145.79;44.18;76512.56;5281601;28;20475;-77
2023/07/05 11:29:28;;;;;;;4.80;1.70;;;;;;;-145.79;44.40;76508.31;5266546;28;20036;-77
2023/07/05 11:32:06;;;;;;;6.85;1.60;;;;;;;-145.79;44.65;76499.84;5261693;28;20060;-76
2023/07/05 11:34:46;;;;;;;7.85;7.03;;;;;;;-145.79;44.00;76512.56;5281505;28;20593;-77
2023/07/05 11:37:18;;;;;;;3.65;2.00;;;;;;;-145.79;44.01;76504.09;5281493;28;20036;-74
2023/07/05 11:39:51;;;;;;;7.05;2.10;;;;;;;-145.79;44.54;76512.56;5282545;28;20025;-75
2023/07/05 11:42:26;;;;;;;3.97;1.98;;;;;;;-145.79;43.77;76482.88;5281427;28;20027;-77
2023/07/05 11:45:06;;;;;;;5.20;2.08;;;;;;;-145.79;44.09;76461.69;5279715;28;20115;-76
2023/07/05 11:47:38;;;;;;;3.75;1.70;;;;;;;-145.79;43.09;76457.47;5261471;28;20039;-75
2023/07/05 11:50:14;;;;;;;6.53;1.75;;;;;;;-145.79;42.89;76436.28;5260671;28;20037;-76
2023/07/05 11:52:48;;;;;;;4.35;1.83;;;;;;;-145.79;42.58;76442.63;5278428;28;20033;-76
2023/07/05 11:55:26;;;;;;;4.63;1.65;;;;;;;-145.79;42.42;76415.06;5282313;28;20021;-76
2023/07/05 11:58:04;;;;;;;4.20;1.83;;;;;;;-145.79;42.39;76463.81;5281387;28;20127;-76
2023/07/05 12:00:44;;;;;;;5.13;1.55;;;;;;;-145.79;42.30;76432.03;5281960;28;20357;-76
2023/07/05 12:03:17;;;;;;;4.22;1.75;;;;;;;-145.79;41.92;76417.19;5273532;28;20449;-76
2023/07/05 12:06:02;;;;;;;5.65;1.65;;;;;;;-145.79;41.20;76448.97;5282401;28;20390;-76
2023/07/05 12:08:41;;;;;;;3.17;1.75;;;;;;;-145.79;39.96;76444.75;5283369;28;20142;-76
2023/07/05 12:11:17;;;;;;;5.35;1.80;;;;;;;-145.79;40.10;76427.78;5285450;28;20067;-77
2023/07/05 12:13:48;;;;;;;9.27;1.77;;;;;;;-145.79;39.70;76406.59;5285890;28;20028;-80
2023/07/05 12:16:19;;;;;;;10.25;2.08;;;;;;;-145.79;39.47;76393.88;5286458;28;20392;-76
2023/07/05 12:18:51;;;;;;;4.85;1.77;;;;;;;-145.79;38.67;76393.88;5284176;28;20379;-76
2023/07/05 12:21:22;;;;;;;4.88;1.83;;;;;;;-145.79;38.80;76404.47;5285644;28;20077;-76
2023/07/05 12:23:54;;;;;;;6.97;1.60;;;;;;;-145.79;39.62;76393.88;5281991;28;20024;-74
2023/07/05 12:26:31;;;;;;;10.10;6.93;;;;;;;-145.79;39.06;76402.38;5284581;28;20032;-75
2023/07/05 12:29:28;;;;;;;8.35;6.15;;;;;;;-145.79;39.28;76385.41;5285450;28;20048;-73
2023/07/05 12:32:14;;;;;;;4.25;1.77;;;;;;;-145.79;39.23;76376.94;5284866;28;20032;-73
2023/07/05 12:34:46;;;;;;;4.57;1.67;;;;;;;-145.79;38.91;76389.66;5284921;28;20020;-74
2023/07/05 12:37:31;;;;;;;5.57;2.13;;;;;;;-145.79;38.28;76415.06;5282595;28;20090;-74
2023/07/05 12:40:24;;;;;;;4.07;1.77;;;;;;;-145.79;37.49;76385.41;5284642;28;20021;-73
2023/07/05 12:43:03;;;;;;;3.53;1.65;;;;;;;-145.79;36.73;76381.16;5285486;28;20028;-74
2023/07/05 12:45:37;;;;;;;4.50;2.00;;;;;;;-145.79;36.63;76368.47;5283806;28;20523;-73
2023/07/05 12:48:29;;;;;;;4.18;1.40;;;;;;;-145.79;36.46;76347.25;5284933;28;20112;-74
2023/07/05 12:51:19;;;;;;;2.95;1.50;;;;;;;-145.79;36.24;76383.28;5285382;28;20052;-74
2023/07/05 12:54:01;;;;;;;5.65;2.40;;;;;;;-145.79;37.02;76353.63;5273050;28;20464;-79
2023/07/05 12:56:35;;;;;;;3.22;1.52;;;;;;;-145.79;36.89;76376.94;5263194;28;20033;-80
2023/07/05 12:59:22;;;;;;;7.80;3.83;;;;;;;-145.79;36.19;76393.88;5285257;28;20020;-84
2023/07/05 13:01:54;;;;;;;4.75;1.65;;;;;;;-145.79;35.96;76370.56;5285470;28;20032;-78
2023/07/05 13:04:25;;;;;;;2.17;1.38;;;;;;;-145.79;36.00;76368.47;5285154;28;20027;-76
2023/07/05 13:06:57;;;;;;;6.22;2.25;;;;;;;-145.79;36.27;76362.09;5281635;28;20121;-74
2023/07/05 13:09:31;;;;;;;2.75;1.45;;;;;;;-145.79;36.41;76355.75;5280895;28;20017;-73
2023/07/05 13:12:09;;;;;;;17.35;14.20;;;;;;;-145.79;36.94;76351.50;5273785;28;20021;-74
2023/07/05 13:15:07;;;;;;;4.28;1.58;;;;;;;-145.79;36.85;76349.38;5263869;28;20108;-77
2023/07/05 13:17:39;;;;;;;6.63;2.10;;;;;;;-145.79;36.75;76338.78;5264498;28;20112;-75
2023/07/05 13:20:20;;;;;;;2.83;1.40;;;;;;;-145.79;36.88;76330.31;5263800;28;20063;-75
2023/07/05 13:22:57;;;;;;;3.88;2.40;;;;;;;-145.79;36.75;76326.06;5262880;28;20400;-78
2023/07/05 13:25:45;;;;;;;5.07;1.65;;;;;;;-145.79;36.48;76338.78;5277929;28;20028;-75
2023/07/05 13:28:25;;;;;;;8.13;2.03;;;;;;;-145.79;36.71;76347.25;5271763;28;20044;-75
2023/07/05 13:31:01;;;;;;;2.75;1.60;;;;;;;-145.79;36.65;76347.25;5284670;28;20032;-76
2023/07/05 13:33:36;;;;;;;4.97;1.80;;;;;;;-145.79;36.55;76347.25;5283672;28;20035;-77
2023/07/05 13:36:08;;;;;;;2.72;1.83;;;;;;;-145.79;36.07;76376.94;5283177;28;20035;-77
2023/07/05 13:38:39;;;;;;;3.70;2.58;;;;;;;-145.79;36.66;76393.88;5282949;28;20028;-77
2023/07/05 13:41:23;;;;;;;16.95;14.23;;;;;;;-145.79;36.40;76364.22;5283102;28;20407;-74
2023/07/05 13:43:55;;;;;;;10.10;9.05;;;;;;;-145.79;36.18;76347.25;5281152;28;20012;-78
2023/07/05 13:46:26;;;;;;;3.53;1.80;;;;;;;-145.79;35.97;76370.56;5263514;28;20031;-77
2023/07/05 13:48:57;;;;;;;2.08;1.63;;;;;;;-145.79;36.24;76340.91;5262202;28;20028;-73
2023/07/05 13:51:32;;;;;;;6.40;2.40;;;;;;;-145.79;35.52;76340.91;5263110;28;20040;-73
2023/07/05 13:54:10;;;;;;;3.42;2.03;;;;;;;-145.79;35.58;76336.66;5276818;28;20111;-74
2023/07/05 13:56:41;;;;;;;5.00;2.10;;;;;;;-145.79;34.88;76347.25;5283229;28;20104;-76
2023/07/05 13:59:15;;;;;;;3.97;1.73;;;;;;;-145.79;35.31;76300.66;5284027;28;20025;-77
2023/07/05 14:01:53;;;;;;;3.42;1.65;;;;;;;-145.79;35.79;76343.03;5274163;28;20350;-77
2023/07/05 14:04:24;;;;;;;3.40;2.28;;;;;;;-145.79;36.09;76304.88;5262190;28;20377;-76
2023/07/05 14:06:55;;;;;;;3.97;1.75;;;;;;;-145.79;35.91;76309.13;5262922;28;20031;-75
2023/07/05 14:09:27;;;;;;;3.80;1.83;;;;;;;-145.79;36.05;76294.28;5262629;28;20119;-75
2023/07/05 14:11:59;;;;;;;5.45;3.67;;;;;;;-145.79;36.30;76359.97;5280672;28;20048;-74
2023/07/05 14:14:30;;;;;;;3.78;2.03;;;;;;;-145.79;36.14;76368.47;5283503;28;20025;-74
2023/07/05 14:17:01;;;;;;;3.97;2.75;;;;;;;-145.79;36.46;76330.31;5282331;28;20059;-74
2023/07/05 14:19:33;;;;;;;2.58;1.88;;;;;;;-145.79;36.82;76309.13;5267332;28;20021;-76
2023/07/05 14:22:05;;;;;;;7.78;5.85;;;;;;;-145.79;37.02;76311.25;5262198;28;20101;-74
2023/07/05 14:24:36;;;;;;;3.35;2.20;;;;;;;-145.79;36.50;76279.47;5262446;28;20108;-75
2023/07/05 14:27:20;;;;;;;4.93;2.30;;;;;;;-145.79;35.84;76336.66;5282411;28;20032;-76
2023/07/05 14:29:53;;;;;;;3.83;2.05;;;;;;;-145.79;36.60;76323.97;5283112;28;20108;-77
2023/07/05 14:32:24;;;;;;;4.18;1.98;;;;;;;-145.79;36.66;76323.97;5281437;28;20074;-76
2023/07/05 14:34:56;;;;;;;2.85;1.88;;;;;;;-145.79;36.69;76307.00;5281812;28;20029;-76
2023/07/05 14:37:29;;;;;;;4.05;2.03;;;;;;;-145.79;36.85;76294.28;5282301;28;20078;-75
2023/07/05 14:40:00;;;;;;;2.33;1.77;;;;;;;-145.79;36.88;76309.13;5282331;28;20369;-74
2023/07/05 14:42:31;;;;;;;2.80;1.95;;;;;;;-145.79;36.72;76275.22;5283260;28;20028;-74
2023/07/05 14:45:05;;;;;;;2.78;2.28;;;;;;;-145.79;36.36;76309.13;5282321;28;20029;-75
2023/07/05 14:47:41;;;;;;;3.90;3.40;;;;;;;-145.79;35.40;76334.56;5282683;28;20535;-76
2023/07/05 14:50:13;;;;;;;11.60;10.48;;;;;;;-145.79;35.85;76283.69;5281957;28;20120;-75
2023/07/05 14:52:46;;;;;;;2.63;1.85;;;;;;;-145.79;35.93;76266.75;5272720;28;20104;-73
2023/07/05 14:55:21;;;;;;;3.80;2.50;;;;;;;-145.79;35.76;76281.56;5262358;28;20029;-72
2023/07/05 14:57:54;;;;;;;2.65;1.90;;;;;;;-145.79;36.04;76279.47;5261907;28;20021;-73
2023/07/05 15:00:30;;;;;;;2.45;1.83;;;;;;;-145.79;36.11;76285.81;5261269;28;20036;-76
2023/07/05 15:03:27;;;;;;;3.55;1.77;;;;;;;-145.79;36.03;76292.16;5261902;28;20527;-74
2023/07/05 15:06:01;;;;;;;6.20;5.35;;;;;;;-145.79;36.01;76273.09;5261383;28;20063;-77
2023/07/05 15:08:34;;;;;;;2.55;1.95;;;;;;;-145.79;35.89;76309.13;5279109;28;20016;-75
2023/07/05 15:11:09;;;;;;;5.25;2.03;;;;;;;-145.79;36.18;76317.59;5262480;28;20087;-76
2023/07/05 15:13:44;;;;;;;3.45;1.83;;;;;;;-145.79;36.74;76330.31;5261254;28;20052;-75
2023/07/05 15:16:19;;;;;;;25.27;22.98;;;;;;;-145.79;36.85;76355.75;5262291;28;20047;-74
2023/07/05 15:18:50;;;;;;;;;;;;;;;-145.79;36.93;76309.13;5262331;28;20033;-75
2023/07/05 15:21:22;;;;;;;6.72;4.88;;;;;;;-145.79;36.67;76345.16;5262544;28;20020;-74
2023/07/05 15:23:55;;;;;;;4.25;2.35;;;;;;;-145.79;36.49;76353.63;5282900;28;20353;-76
2023/07/05 15:26:27;;;;;;;4.82;2.13;;;;;;;-145.79;36.54;76326.06;5275519;28;20063;-75
2023/07/05 15:29:00;;;;;;;3.72;2.10;;;;;;;-145.79;36.35;76330.31;5261178;28;20040;-74
2023/07/05 15:31:32;;;;;;;9.23;8.32;;;;;;;-145.79;36.28;76319.72;5261593;28;20063;-75
2023/07/05 15:34:03;;;;;;;4.35;2.00;;;;;;;-145.79;36.70;76370.56;5260994;28;20429;-75
2023/07/05 15:36:34;;;;;;;6.28;5.60;;;;;;;-145.79;36.88;76368.47;5266532;28;20100;-76
2023/07/05 15:39:08;;;;;;;2.30;2.10;;;;;;;-145.79;36.54;76351.50;5282702;28;20032;-77
2023/07/05 15:41:40;;;;;;;5.65;2.70;;;;;;;-145.79;36.49;76351.50;5280961;28;20036;-77
2023/07/05 15:44:11;;;;;;;2.83;1.92;;;;;;;-145.79;36.62;76334.56;5271889;28;20083;-78
2023/07/05 15:46:42;;;;;;;3.53;2.42;;;;;;;-145.79;36.61;76351.50;5265926;28;20021;-77
2023/07/05 15:49:14;;;;;;;3.75;2.85;;;;;;;-145.79;36.77;76343.03;5264932;28;20056;-80
2023/07/05 15:51:45;;;;;;;2.80;2.08;;;;;;;-145.79;36.39;76351.50;5275850;28;20093;-79
2023/07/05 15:54:19;;;;;;;3.13;1.70;;;;;;;-145.79;36.33;76351.50;5286215;28;20032;-79
2023/07/05 15:56:51;;;;;;;3.05;1.60;;;;;;;-145.79;36.64;76362.09;5285732;28;20406;-79
2023/07/05 15:59:32;;;;;;;3.67;1.95;;;;;;;-145.79;37.13;76393.88;5286072;28;20020;-77
2023/07/05 16:02:10;;;;;;;2.88;1.50;;;;;;;-145.79;37.30;76376.94;5280283;28;20028;-78
2023/07/05 16:04:43;;;;;;;2.88;1.80;;;;;;;-145.79;37.48;76347.25;5285889;28;20527;-79
2023/07/05 16:07:14;;;;;;;3.00;1.80;;;;;;;-145.79;37.40;76351.50;5286029;28;20402;-76
2023/07/05 16:09:46;;;;;;;4.55;1.95;;;;;;;-145.79;37.22;76345.16;5286345;28;20103;-75
2023/07/05 16:12:17;;;;;;;6.60;5.85;;;;;;;-145.79;37.58;76323.97;5285573;28;20077;-78
2023/07/05 16:14:49;;;;;;;4.05;1.90;;;;;;;-145.79;37.32;76315.47;5286429;28;20396;-79
2023/07/05 16:17:20;;;;;;;2.65;1.70;;;;;;;-145.79;37.27;76326.06;5279213;28;20021;-78
2023/07/05 16:19:52;;;;;;;2.00;1.50;;;;;;;-145.79;36.98;76323.97;5265694;28;20021;-79
2023/07/05 16:22:23;;;;;;;3.15;1.58;;;;;;;-145.79;37.18;76298.53;5265167;28;20071;-78
2023/07/05 16:24:55;;;;;;;3.65;1.70;;;;;;;-145.79;37.16;76351.50;5266026;28;20378;-77
2023/07/05 16:27:27;;;;;;;4.47;1.63;;;;;;;-145.79;37.38;76349.38;5285475;28;20027;-77
2023/07/05 16:30:02;;;;;;;3.22;1.70;;;;;;;-145.79;37.51;76381.16;5284768;28;20031;-76
2023/07/05 16:32:34;;;;;;;3.53;2.15;;;;;;;-145.79;37.73;76385.41;5287767;28;20115;-79
2023/07/05 16:35:09;;;;;;;3.17;1.65;;;;;;;-145.79;38.69;76406.59;5273687;28;20112;-76
2023/07/05 16:37:40;;;;;;;5.15;1.80;;;;;;;-145.79;38.30;76419.31;5263924;28;20152;-78
2023/07/05 16:40:12;;;;;;;3.67;1.95;;;;;;;-145.79;39.02;76402.38;5264351;28;20107;-78
2023/07/05 16:42:45;;;;;;;3.05;1.70;;;;;;;-145.79;38.55;76419.31;5264684;28;20464;-76
2023/07/05 16:45:16;;;;;;;2.72;1.65;;;;;;;-145.79;38.33;76444.75;5271208;28;20134;-78
2023/07/05 16:47:48;;;;;;;4.22;2.08;;;;;;;-145.79;40.99;76472.28;5285217;28;20017;-77
2023/07/05 16:50:19;;;;;;;5.43;2.55;;;;;;;-145.79;44.37;76497.72;5285300;28;20383;-78
2023/07/05 16:52:52;;;;;;;4.18;1.98;;;;;;;-145.79;45.73;76529.50;5266118;28;20500;-78
